地図

経路データ

SID SEASON NUMBER BASIN SUBBASIN NAME ISO_TIME NATURE LAT LON WMO_WIND WMO_PRES WMO_AGENCY TRACK_TYPE DIST2LAND LANDFALL IFLAG USA_AGENCY USA_ATCF_ID USA_LAT USA_LON USA_RECORD USA_STATUS USA_WIND USA_PRES USA_SSHS USA_R34_NE USA_R34_SE USA_R34_SW USA_R34_NW USA_R50_NE USA_R50_SE USA_R50_SW USA_R50_NW USA_R64_NE USA_R64_SE USA_R64_SW USA_R64_NW USA_POCI USA_ROCI USA_RMW USA_EYE TOKYO_LAT TOKYO_LON TOKYO_GRADE TOKYO_WIND TOKYO_PRES TOKYO_R50_DIR TOKYO_R50_LONG TOKYO_R50_SHORT TOKYO_R30_DIR TOKYO_R30_LONG TOKYO_R30_SHORT TOKYO_LAND CMA_LAT CMA_LON CMA_CAT CMA_WIND CMA_PRES HKO_LAT HKO_LON HKO_CAT HKO_WIND HKO_PRES NEWDELHI_LAT NEWDELHI_LON NEWDELHI_GRADE NEWDELHI_WIND NEWDELHI_PRES NEWDELHI_CI NEWDELHI_DP NEWDELHI_POCI REUNION_LAT REUNION_LON REUNION_TYPE REUNION_WIND REUNION_PRES REUNION_TNUM REUNION_CI REUNION_RMW REUNION_R34_NE REUNION_R34_SE REUNION_R34_SW REUNION_R34_NW REUNION_R50_NE REUNION_R50_SE REUNION_R50_SW REUNION_R50_NW REUNION_R64_NE REUNION_R64_SE REUNION_R64_SW REUNION_R64_NW BOM_LAT BOM_LON BOM_TYPE BOM_WIND BOM_PRES BOM_TNUM BOM_CI BOM_RMW BOM_R34_NE BOM_R34_SE BOM_R34_SW BOM_R34_NW BOM_R50_NE BOM_R50_SE BOM_R50_SW BOM_R50_NW BOM_R64_NE BOM_R64_SE BOM_R64_SW BOM_R64_NW BOM_ROCI BOM_POCI BOM_EYE BOM_POS_METHOD BOM_PRES_METHOD NADI_LAT NADI_LON NADI_CAT NADI_WIND NADI_PRES WELLINGTON_LAT WELLINGTON_LON WELLINGTON_WIND WELLINGTON_PRES DS824_LAT DS824_LON DS824_STAGE DS824_WIND DS824_PRES TD9636_LAT TD9636_LON TD9636_STAGE TD9636_WIND TD9636_PRES TD9635_LAT TD9635_LON TD9635_WIND TD9635_PRES TD9635_ROCI NEUMANN_LAT NEUMANN_LON NEUMANN_CLASS NEUMANN_WIND NEUMANN_PRES MLC_LAT MLC_LON MLC_CLASS MLC_WIND MLC_PRES USA_GUST BOM_GUST BOM_GUST_PER REUNION_GUST REUNION_GUST_PER USA_SEAHGT USA_SEARAD_NE USA_SEARAD_SE USA_SEARAD_SW USA_SEARAD_NW STORM_SPEED STORM_DIR
1915265N12299 1915 36 NA CS NOT_NAMED 1915-09-21 12:00:00 TS 12.3000 -61.0000 35 hurdat_atl main 179 179 O_____________ hurdat_atl AL061915 12.3000 -61.0000 TS 35 0 7 317
1915265N12299 1915 36 NA CS NOT_NAMED 1915-09-21 15:00:00 TS 12.5575 -61.2424 main 212 212 P_____________ AL061915 12.5575 -61.2424 TS 37 0 7 316
1915265N12299 1915 36 NA CS NOT_NAMED 1915-09-21 18:00:00 TS 12.8000 -61.5000 40 hurdat_atl main 235 235 O_____________ hurdat_atl AL061915 12.8000 -61.5000 TS 40 0 7 311
1915265N12299 1915 36 NA CS NOT_NAMED 1915-09-21 21:00:00 TS 13.0150 -61.7850 main 257 257 P_____________ AL061915 13.0150 -61.7850 TS 42 0 7 304
1915265N12299 1915 36 NA CS NOT_NAMED 1915-09-22 00:00:00 TS 13.2000 -62.1000 45 hurdat_atl main 280 279 O_____________ hurdat_atl AL061915 13.2000 -62.1000 TS 45 0 7 298
1915265N12299 1915 36 NA CS NOT_NAMED 1915-09-22 03:00:00 TS 13.3574 -62.4351 main 302 302 P_____________ AL061915 13.3574 -62.4351 TS 47 0 7 294
1915265N12299 1915 36 NA CS NOT_NAMED 1915-09-22 06:00:00 TS 13.5000 -62.8000 50 hurdat_atl main 313 313 O_____________ hurdat_atl AL061915 13.5000 -62.8000 TS 50 0 8 293
1915265N12299 1915 36 NA CS NOT_NAMED 1915-09-22 09:00:00 TS 13.6574 -63.1775 main 336 336 P_____________ AL061915 13.6574 -63.1775 TS 52 0 8 291
1915265N12299 1915 36 NA CS NOT_NAMED 1915-09-22 12:00:00 TS 13.8000 -63.6000 55 hurdat_atl main 351 351 O_____________ hurdat_atl AL061915 13.8000 -63.6000 TS 55 0 9 287
1915265N12299 1915 36 NA CS NOT_NAMED 1915-09-22 15:00:00 TS 13.9149 -64.0700 main 369 369 P_____________ AL061915 13.9149 -64.0700 TS 57 0 10 282
1915265N12299 1915 36 NA CS NOT_NAMED 1915-09-22 18:00:00 TS 14.0000 -64.6000 60 hurdat_atl main 383 383 O_____________ hurdat_atl AL061915 14.0000 -64.6000 TS 60 0 11 277
1915265N12299 1915 36 NA CS NOT_NAMED 1915-09-22 21:00:00 TS 14.0575 -65.1926 main 401 392 P_____________ AL061915 14.0575 -65.1926 TS 62 0 12 275
1915265N12299 1915 36 NA CS NOT_NAMED 1915-09-23 00:00:00 TS 14.1000 -65.8000 65 hurdat_atl main 392 391 O_____________ hurdat_atl AL061915 14.1000 -65.8000 HU 65 1 11 275
1915265N12299 1915 36 NA CS NOT_NAMED 1915-09-23 03:00:00 TS 14.1498 -66.3575 main 390 373 P_____________ AL061915 14.1498 -66.3575 HU 67 1 11 275
1915265N12299 1915 36 NA CS NOT_NAMED 1915-09-23 06:00:00 TS 14.2000 -66.9000 70 hurdat_atl main 373 348 O_____________ hurdat_atl AL061915 14.2000 -66.9000 HU 70 1 11 276
1915265N12299 1915 36 NA CS NOT_NAMED 1915-09-23 09:00:00 TS 14.2574 -67.4575 main 354 320 P_____________ AL061915 14.2574 -67.4575 HU 72 1 11 275
1915265N12299 1915 36 NA CS NOT_NAMED 1915-09-23 12:00:00 TS 14.3000 -68.0000 75 hurdat_atl main 320 289 O_____________ hurdat_atl AL061915 14.3000 -68.0000 HU 75 1 10 272
1915265N12299 1915 36 NA CS NOT_NAMED 1915-09-23 15:00:00 TS 14.2998 -68.5076 main 289 264 P_____________ AL061915 14.2998 -68.5076 HU 75 1 10 270
1915265N12299 1915 36 NA CS NOT_NAMED 1915-09-23 18:00:00 TS 14.3000 -69.0000 75 hurdat_atl main 264 250 O_____________ hurdat_atl AL061915 14.3000 -69.0000 HU 75 1 10 273
1915265N12299 1915 36 NA CS NOT_NAMED 1915-09-23 21:00:00 TS 14.3424 -69.5000 main 250 248 P_____________ AL061915 14.3424 -69.5000 HU 77 1 10 276
1915265N12299 1915 36 NA CS NOT_NAMED 1915-09-24 00:00:00 TS 14.4000 -70.0000 80 hurdat_atl main 257 253 O_____________ hurdat_atl AL061915 14.4000 -70.0000 HU 80 1 10 277
1915265N12299 1915 36 NA CS NOT_NAMED 1915-09-24 03:00:00 TS 14.4574 -70.5000 main 258 241 P_____________ AL061915 14.4574 -70.5000 HU 82 1 10 276
1915265N12299 1915 36 NA CS NOT_NAMED 1915-09-24 06:00:00 TS 14.5000 -71.0000 85 hurdat_atl main 241 235 O_____________ hurdat_atl AL061915 14.5000 -71.0000 HU 85 2 10 273
1915265N12299 1915 36 NA CS NOT_NAMED 1915-09-24 09:00:00 TS 14.4998 -71.4926 main 235 235 P_____________ AL061915 14.4998 -71.4926 HU 90 2 10 270
1915265N12299 1915 36 NA CS NOT_NAMED 1915-09-24 12:00:00 TS 14.5000 -72.0000 95 hurdat_atl main 237 237 O_____________ hurdat_atl AL061915 14.5000 -72.0000 HU 95 2 10 272
1915265N12299 1915 36 NA CS NOT_NAMED 1915-09-24 15:00:00 TS 14.5349 -72.5425 main 250 250 P_____________ AL061915 14.5349 -72.5425 HU 100 3 11 275
1915265N12299 1915 36 NA CS NOT_NAMED 1915-09-24 18:00:00 TS 14.6000 -73.1000 105 hurdat_atl main 283 283 O_____________ hurdat_atl AL061915 14.6000 -73.1000 HU 105 3 11 278
1915265N12299 1915 36 NA CS NOT_NAMED 1915-09-24 21:00:00 TS 14.6924 -73.6500 main 318 318 P_____________ AL061915 14.6924 -73.6500 HU 110 3 11 281
1915265N12299 1915 36 NA CS NOT_NAMED 1915-09-25 00:00:00 TS 14.8000 -74.2000 115 hurdat_atl main 359 352 O_____________ hurdat_atl AL061915 14.8000 -74.2000 HU 115 4 11 281
1915265N12299 1915 36 NA CS NOT_NAMED 1915-09-25 03:00:00 TS 14.8923 -74.7426 main 357 338 P_____________ AL061915 14.8923 -74.7426 HU 117 4 11 281
1915265N12299 1915 36 NA CS NOT_NAMED 1915-09-25 06:00:00 TS 15.0000 -75.3000 120 hurdat_atl main 338 314 O_____________ hurdat_atl AL061915 15.0000 -75.3000 HU 120 4 11 283
1915265N12299 1915 36 NA CS NOT_NAMED 1915-09-25 09:00:00 TS 15.1424 -75.8925 main 314 278 P_____________ AL061915 15.1424 -75.8925 HU 122 4 12 285
1915265N12299 1915 36 NA CS NOT_NAMED 1915-09-25 12:00:00 TS 15.3000 -76.5000 125 hurdat_atl main 278 257 O_____________ hurdat_atl AL061915 15.3000 -76.5000 HU 125 4 12 285
1915265N12299 1915 36 NA CS NOT_NAMED 1915-09-25 15:00:00 TS 15.4499 -77.1076 main 257 237 P_____________ AL061915 15.4499 -77.1076 HU 125 4 12 285
1915265N12299 1915 36 NA CS NOT_NAMED 1915-09-25 18:00:00 TS 15.6000 -77.7000 125 931 hurdat_atl main 240 235 O_____________ hurdat_atl AL061915 15.6000 -77.7000 HU 125 931 4 11 285
1915265N12299 1915 36 NA CS NOT_NAMED 1915-09-25 21:00:00 TS 15.7498 -78.2576 main 252 242 P_____________ AL061915 15.7498 -78.2576 HU 125 4 11 286
1915265N12299 1915 36 NA CS NOT_NAMED 1915-09-26 00:00:00 TS 15.9000 -78.8000 125 hurdat_atl main 252 252 O_____________ hurdat_atl AL061915 15.9000 -78.8000 HU 125 4 11 286
1915265N12299 1915 36 NA CS NOT_NAMED 1915-09-26 03:00:00 TS 16.0424 -79.3502 main 268 257 P_____________ AL061915 16.0424 -79.3502 HU 125 4 11 286
1915265N12299 1915 36 NA CS NOT_NAMED 1915-09-26 06:00:00 TS 16.2000 -79.9000 125 hurdat_atl main 274 274 O_____________ hurdat_atl AL061915 16.2000 -79.9000 HU 125 4 11 287
1915265N12299 1915 36 NA CS NOT_NAMED 1915-09-26 09:00:00 TS 16.3700 -80.4652 main 300 287 P_____________ AL061915 16.3700 -80.4652 HU 125 4 11 291
1915265N12299 1915 36 NA CS NOT_NAMED 1915-09-26 12:00:00 TS 16.6000 -81.0000 125 hurdat_atl main 287 271 O_____________ hurdat_atl AL061915 16.6000 -81.0000 HU 125 4 11 299
1915265N12299 1915 36 NA CS NOT_NAMED 1915-09-26 15:00:00 TS 16.8973 -81.4653 main 270 266 P_____________ AL061915 16.8973 -81.4653 HU 125 4 11 309
1915265N12299 1915 36 NA CS NOT_NAMED 1915-09-26 18:00:00 TS 17.3000 -81.9000 125 hurdat_atl main 275 275 O_____________ hurdat_atl AL061915 17.3000 -81.9000 HU 125 4 13 317
1915265N12299 1915 36 NA CS NOT_NAMED 1915-09-26 21:00:00 TS 17.8124 -82.3501 main 299 299 P_____________ AL061915 17.8124 -82.3501 HU 125 4 14 322
1915265N12299 1915 36 NA CS NOT_NAMED 1915-09-27 00:00:00 TS 18.4000 -82.8000 125 hurdat_atl main 331 271 O_____________ hurdat_atl AL061915 18.4000 -82.8000 HU 125 4 15 324
1915265N12299 1915 36 NA CS NOT_NAMED 1915-09-27 03:00:00 TS 18.9999 -83.2502 main 273 222 P_____________ AL061915 18.9999 -83.2502 HU 125 4 15 325
1915265N12299 1915 36 NA CS NOT_NAMED 1915-09-27 06:00:00 TS 19.6000 -83.7000 125 hurdat_atl main 222 193 O_____________ hurdat_atl AL061915 19.6000 -83.7000 HU 125 4 15 324
1915265N12299 1915 36 NA CS NOT_NAMED 1915-09-27 09:00:00 TS 20.1800 -84.1650 main 181 123 P_____________ AL061915 20.1800 -84.1650 HU 125 4 14 322
1915265N12299 1915 36 NA CS NOT_NAMED 1915-09-27 12:00:00 TS 20.7000 -84.6000 125 hurdat_atl main 123 78 O_____________ hurdat_atl AL061915 20.7000 -84.6000 HU 125 4 12 321
1915265N12299 1915 36 NA CS NOT_NAMED 1915-09-27 15:00:00 TS 21.1224 -84.9729 main 80 54 P_____________ AL061915 21.1224 -84.9729 HU 125 4 10 321
1915265N12299 1915 36 NA CS NOT_NAMED 1915-09-27 18:00:00 TS 21.5000 -85.3000 125 hurdat_atl main 54 46 O_____________ hurdat_atl AL061915 21.5000 -85.3000 HU 125 4 10 323
1915265N12299 1915 36 NA GM NOT_NAMED 1915-09-27 21:00:00 TS 21.8999 -85.6003 main 61 61 P_____________ AL061915 21.8999 -85.6003 HU 125 4 10 325
1915265N12299 1915 36 NA GM NOT_NAMED 1915-09-28 00:00:00 TS 22.3000 -85.9000 125 hurdat_atl main 102 102 O_____________ hurdat_atl AL061915 22.3000 -85.9000 HU 125 4 10 323
1915265N12299 1915 36 NA GM NOT_NAMED 1915-09-28 03:00:00 TS 22.7075 -86.2500 main 152 152 P_____________ AL061915 22.7075 -86.2500 HU 125 4 10 321
1915265N12299 1915 36 NA GM NOT_NAMED 1915-09-28 06:00:00 TS 23.1000 -86.6000 125 hurdat_atl main 183 183 O_____________ hurdat_atl AL061915 23.1000 -86.6000 HU 125 4 10 321
1915265N12299 1915 36 NA GM NOT_NAMED 1915-09-28 09:00:00 TS 23.4424 -86.9079 main 212 212 P_____________ AL061915 23.4424 -86.9079 HU 125 4 9 322
1915265N12299 1915 36 NA GM NOT_NAMED 1915-09-28 12:00:00 TS 23.8000 -87.2000 125 hurdat_atl main 257 257 O_____________ hurdat_atl AL061915 23.8000 -87.2000 HU 125 4 10 326
1915265N12299 1915 36 NA GM NOT_NAMED 1915-09-28 15:00:00 TS 24.2274 -87.4928 main 302 302 P_____________ AL061915 24.2274 -87.4928 HU 125 4 11 329
1915265N12299 1915 36 NA GM NOT_NAMED 1915-09-28 18:00:00 TS 24.7000 -87.8000 125 hurdat_atl main 357 357 O_____________ hurdat_atl AL061915 24.7000 -87.8000 HU 125 4 11 328
1915265N12299 1915 36 NA GM NOT_NAMED 1915-09-28 21:00:00 TS 25.1850 -88.1427 main 413 373 P_____________ AL061915 25.1850 -88.1427 HU 122 4 12 328
1915265N12299 1915 36 NA GM NOT_NAMED 1915-09-29 00:00:00 TS 25.7000 -88.5000 120 hurdat_atl main 373 314 O_____________ hurdat_atl AL061915 25.7000 -88.5000 HU 120 4 12 329
1915265N12299 1915 36 NA GM NOT_NAMED 1915-09-29 03:00:00 TS 26.2425 -88.8577 main 313 245 P_____________ AL061915 26.2425 -88.8577 HU 120 4 13 330
1915265N12299 1915 36 NA GM NOT_NAMED 1915-09-29 06:00:00 TS 26.8000 -89.2000 120 935 hurdat_atl main 245 193 O_____________ hurdat_atl AL061915 26.8000 -89.2000 HU 120 935 4 13 332
1915265N12299 1915 36 NA GM NOT_NAMED 1915-09-29 09:00:00 TS 27.3499 -89.5153 main 193 137 P_____________ AL061915 27.3499 -89.5153 HU 117 937 4 12 334
1915265N12299 1915 36 NA GM NOT_NAMED 1915-09-29 12:00:00 TS 27.9000 -89.8000 115 hurdat_atl main 137 78 I_____________ hurdat_atl AL061915 27.9000 -89.8000 HU 115 939 4 12 335
1915265N12299 1915 36 NA GM NOT_NAMED 1915-09-29 15:00:00 TS 28.4500 -90.1022 main 66 14 P_____________ AL061915 28.4500 -90.1022 HU 112 941 3 12 338
1915265N12299 1915 36 NA GM NOT_NAMED 1915-09-29 18:00:00 TS 29.0000 -90.3000 110 944 hurdat_atl main 14 0 O_____________ hurdat_atl AL061915 29.0000 -90.3000 L HU 110 944 3 11 351
1915265N12299 1915 36 NA NA NOT_NAMED 1915-09-29 21:00:00 TS 29.5499 -90.3030 main 0 0 P_____________ AL061915 29.5499 -90.3030 HU 90 946 2 11 5
1915265N12299 1915 36 NA GM NOT_NAMED 1915-09-30 00:00:00 TS 30.1000 -90.2000 70 949 hurdat_atl main 11 0 O_____________ hurdat_atl AL061915 30.1000 -90.2000 HU 70 949 1 11 7
1915265N12299 1915 36 NA NA NOT_NAMED 1915-09-30 03:00:00 TS 30.6498 -90.1444 main 0 0 P_____________ AL061915 30.6498 -90.1444 HU 65 1 11 9
1915265N12299 1915 36 NA NA NOT_NAMED 1915-09-30 06:00:00 TS 31.2000 -90.0000 60 hurdat_atl main 0 0 O_____________ hurdat_atl AL061915 31.2000 -90.0000 TS 60 0 12 19
1915265N12299 1915 36 NA NA NOT_NAMED 1915-09-30 09:00:00 TS 31.7350 -89.7022 main 0 0 P_____________ AL061915 31.7350 -89.7022 TS 55 0 13 28
1915265N12299 1915 36 NA NA NOT_NAMED 1915-09-30 12:00:00 ET 32.3000 -89.3000 50 hurdat_atl main 0 0 O_____________ hurdat_atl AL061915 32.3000 -89.3000 EX 50 -4 14 29
1915265N12299 1915 36 NA NA NOT_NAMED 1915-09-30 15:00:00 ET 32.9268 -88.9159 main 0 0 P_____________ AL061915 32.9268 -88.9159 EX 45 -4 15 30
1915265N12299 1915 36 NA NA NOT_NAMED 1915-09-30 18:00:00 ET 33.6000 -88.4000 40 hurdat_atl main 0 0 O_____________ hurdat_atl AL061915 33.6000 -88.4000 EX 40 -4 17 37
1915265N12299 1915 36 NA NA NOT_NAMED 1915-09-30 21:00:00 ET 34.2847 -87.6815 main 0 0 P_____________ AL061915 34.2847 -87.6815 EX 37 -4 19 43
1915265N12299 1915 36 NA NA NOT_NAMED 1915-10-01 00:00:00 ET 35.0000 -86.8000 35 hurdat_atl main 0 0 O_____________ hurdat_atl AL061915 35.0000 -86.8000 EX 35 -4 21 46
1915265N12299 1915 36 NA NA NOT_NAMED 1915-10-01 03:00:00 ET 35.7266 -85.8575 main 0 0 P_____________ AL061915 35.7266 -85.8575 EX 35 -4 22 47
1915265N12299 1915 36 NA NA NOT_NAMED 1915-10-01 06:00:00 ET 36.5000 -84.8000 35 hurdat_atl main 0 0 O_____________ hurdat_atl AL061915 36.5000 -84.8000 EX 35 -4 24 48
1915265N12299 1915 36 NA NA NOT_NAMED 1915-10-01 09:00:00 ET 37.3118 -83.6421 main 0 0 P_____________ AL061915 37.3118 -83.6421 EX 35 -4 26 48
1915265N12299 1915 36 NA NA NOT_NAMED 1915-10-01 12:00:00 ET 38.2000 -82.4000 35 hurdat_atl main 0 0 O_____________ hurdat_atl AL061915 38.2000 -82.4000 EX 35 -4 27 47
1915265N12299 1915 36 NA NA NOT_NAMED 1915-10-01 15:00:00 ET 39.1777 -81.1183 main 0 0 P_____________ AL061915 39.1777 -81.1183 EX 35 -4 28 45
1915265N12299 1915 36 NA NA NOT_NAMED 1915-10-01 18:00:00 ET 40.2000 -79.8000 35 hurdat_atl main 0 O_____________ hurdat_atl AL061915 40.2000 -79.8000 EX 35 -4 29 45

IBTrACS Databaseについて

本データベースは、米国NOAAが公開する1842年以降の世界の熱帯低気圧のベストトラックデータアーカイブInternational Best Track Archive for Climate Stewardship (IBTrACS)を、ウェブで閲覧しやすい形式に変換したものです。

最終更新日:2021-11-26